»·PEaware :: N503VR KEEO-KAMA

N503VR :: KEEO-KAMA

FLIGHT INFORMATION

Flight Status: Arrived
Operator: Privately registered:
United States
More flights under this callsign
Pilot: Chris H. (14545)
Aircraft: BOMBARDIER BD-100 CHALLENGER 300
(CL30)
More flights by this aircraft type
Origin: KEEO Meeker
United States
Destination: KAMA Amarillo Intl
United States
More flights between these airports :: More routes between these airports
Route: +PITMN Q154 KENTO J17 PNH
File this flight plan on PilotEdge
Remarks:
Altitude:
(Current/Filed)
37,000ft
Speed:
(Current/Filed)
464kts
Departed: 20-Jun-18 11:07 AM
Arrived: 20-Jun-18 12:10 PM
Distance/Time
Traveled:
412nm/1:03
Distance/Time
To Go:
Arrived

Flight Plot

Page will automatically refresh every two minutes.

Flight plan parsing failed; only flown route is shown


Map Options




Map Legend


Flown Route
Filed Route
Departure Airport
Arrival Airport
Navaid (VOR, NDB)
Fix

Horizontal Profiles

Position Reports

Time Latitude Longitude Heading Altitude Ground
Speed
20-Jun-18 10:57 40.042165 -107.890631 222 6357ft 0kts
20-Jun-18 10:58 40.042165 -107.890631 222 6357ft 0kts
20-Jun-18 10:59 40.042165 -107.890631 222 6357ft 0kts
20-Jun-18 11:00 40.042165 -107.890631 222 6357ft 0kts
20-Jun-18 11:01 40.042157 -107.890640 222 6357ft 0kts
20-Jun-18 11:02 40.041729 -107.892915 313 6347ft 0kts
20-Jun-18 11:03 40.044377 -107.890672 40 6363ft 3kts
20-Jun-18 11:04 40.048229 -107.886545 40 6385ft 22kts
20-Jun-18 11:05 40.053465 -107.880892 39 6407ft 27kts
20-Jun-18 11:06 40.054774 -107.879503 219 6414ft 20kts
20-Jun-18 11:07 40.028570 -107.907216 219 7638ft 155kts
20-Jun-18 11:08 39.991144 -107.928015 166 9649ft 197kts
20-Jun-18 11:09 39.934639 -107.882710 148 11489ft 259kts
20-Jun-18 11:10 39.866101 -107.830309 151 13491ft 298kts
20-Jun-18 11:11 39.794555 -107.779303 152 13487ft 293kts
20-Jun-18 11:12 39.719009 -107.726901 154 16130ft 335kts
20-Jun-18 11:13 39.630259 -107.666133 154 18479ft 379kts
20-Jun-18 11:14 39.534622 -107.601035 155 21087ft 400kts
20-Jun-18 11:15 39.434045 -107.532866 156 23378ft 419kts
20-Jun-18 11:16 39.328935 -107.461879 156 25413ft 436kts
20-Jun-18 11:17 39.219730 -107.388381 157 27235ft 452kts
20-Jun-18 11:18 39.111307 -107.307407 142 28821ft 474kts
20-Jun-18 11:19 39.028557 -107.170949 126 30222ft 493kts
20-Jun-18 11:20 38.950241 -107.025708 125 31660ft 501kts
20-Jun-18 11:21 38.870655 -106.877558 124 32766ft 514kts
20-Jun-18 11:22 38.788511 -106.724861 123 33726ft 526kts
20-Jun-18 11:23 38.705404 -106.568777 123 34762ft 535kts
20-Jun-18 11:24 38.621072 -106.411165 123 35738ft 542kts
20-Jun-18 11:25 38.536358 -106.253588 124 36754ft 538kts
20-Jun-18 11:26 38.451061 -106.095701 124 37340ft 547kts
20-Jun-18 11:27 38.364863 -105.936945 124 37339ft 543kts
20-Jun-18 11:28 38.278991 -105.779516 124 37344ft 544kts
20-Jun-18 11:29 38.192864 -105.622412 124 37347ft 543kts
20-Jun-18 11:30 38.106654 -105.465883 124 37322ft 538kts
20-Jun-18 11:31 38.020999 -105.311099 125 37286ft 539kts
20-Jun-18 11:32 37.934780 -105.156046 125 37195ft 539kts
20-Jun-18 11:33 37.848606 -105.001831 124 37182ft 542kts
20-Jun-18 11:34 37.760934 -104.845663 124 37154ft 547kts
20-Jun-18 11:35 37.673063 -104.689783 124 37182ft 546kts
20-Jun-18 11:36 37.584451 -104.534402 124 37215ft 546kts
20-Jun-18 11:37 37.495510 -104.380506 124 37218ft 546kts
20-Jun-18 11:38 37.406140 -104.226631 125 37208ft 546kts
20-Jun-18 11:39 37.316665 -104.073282 125 37211ft 546kts
20-Jun-18 11:40 37.226803 -103.919981 125 37215ft 546kts
20-Jun-18 11:41 37.136710 -103.766996 125 37219ft 546kts
20-Jun-18 11:42 37.061893 -103.640454 125 37219ft 539kts
20-Jun-18 11:43 36.974415 -103.493121 125 36883ft 519kts
20-Jun-18 11:44 36.889497 -103.350718 125 35959ft 510kts
20-Jun-18 11:45 36.804943 -103.209501 126 34413ft 509kts
20-Jun-18 11:46 36.711714 -103.077402 140 31498ft 513kts
20-Jun-18 11:47 36.600877 -102.968764 140 28891ft 498kts
20-Jun-18 11:48 36.493515 -102.866393 139 26640ft 476kts
20-Jun-18 11:49 36.391238 -102.769627 139 24431ft 452kts
20-Jun-18 11:50 36.294087 -102.678084 139 22231ft 429kts
20-Jun-18 11:51 36.201447 -102.591071 139 19939ft 408kts
20-Jun-18 11:52 36.114528 -102.509711 139 17953ft 366kts
20-Jun-18 11:53 36.036015 -102.436349 139 15397ft 346kts
20-Jun-18 11:54 35.961510 -102.366916 140 12623ft 328kts
20-Jun-18 11:55 35.893130 -102.303414 141 10544ft 293kts
20-Jun-18 11:56 35.832714 -102.247418 141 10026ft 261kts
20-Jun-18 11:57 35.775160 -102.194145 141 10027ft 261kts
20-Jun-18 11:58 35.717229 -102.140628 141 10027ft 261kts
20-Jun-18 11:59 35.658465 -102.086431 141 8743ft 266kts
20-Jun-18 12:00 35.599703 -102.032346 142 7247ft 263kts
20-Jun-18 12:01 35.542491 -101.979797 142 6022ft 242kts
20-Jun-18 12:02 35.489423 -101.931142 142 6020ft 237kts
20-Jun-18 12:03 35.436645 -101.882826 142 6014ft 236kts
20-Jun-18 12:04 35.399810 -101.818716 116 6010ft 234kts
20-Jun-18 12:05 35.370887 -101.749722 118 6000ft 218kts
20-Jun-18 12:06 35.333331 -101.693913 145 4972ft 197kts
20-Jun-18 12:07 35.288839 -101.678566 171 4541ft 145kts
20-Jun-18 12:08 35.248249 -101.681617 202 4245ft 156kts
20-Jun-18 12:09 35.218407 -101.715921 224 3613ft 100kts
20-Jun-18 12:10 35.212688 -101.721080 134 3612ft 0kts
20-Jun-18 12:11 35.211867 -101.718973 47 3612ft 8kts

Navigation Log

Ident Type
Flight plan parsing failed, navigation log unavailable